createdAt,value
2022-10-08T00:01:57.953Z,48.45
2022-10-08T00:04:30.487Z,48.48
2022-10-08T00:07:00.923Z,48.52
2022-10-08T00:09:33.102Z,48.59
2022-10-08T00:12:05.265Z,48.64
2022-10-08T00:14:38.596Z,48.80
2022-10-08T00:17:10.658Z,48.78
2022-10-08T00:19:43.237Z,48.92
2022-10-08T00:22:13.667Z,48.97
2022-10-08T00:24:46.622Z,49.01
2022-10-08T00:27:18.681Z,49.09
2022-10-08T00:29:50.727Z,49.06
2022-10-08T00:32:22.880Z,49.23
2022-10-08T00:34:55.045Z,49.29
2022-10-08T00:37:27.151Z,49.34
2022-10-08T00:39:59.214Z,49.36
2022-10-08T00:42:31.293Z,49.50
2022-10-08T00:45:03.532Z,49.58
2022-10-08T00:47:43.148Z,49.62
2022-10-08T00:50:19.242Z,49.55
2022-10-08T00:52:56.117Z,49.52
2022-10-08T00:55:29.325Z,49.69
2022-10-08T00:58:04.294Z,49.74
2022-10-08T01:00:36.541Z,49.88
2022-10-08T01:03:09.000Z,49.95
2022-10-08T01:05:48.980Z,49.94
2022-10-08T01:08:26.635Z,49.95
2022-10-08T01:11:04.190Z,50.08
2022-10-08T01:13:42.767Z,50.11
2022-10-08T01:16:21.930Z,50.16
2022-10-08T01:18:59.078Z,50.17
2022-10-08T01:21:39.564Z,50.22
2022-10-08T01:24:49.952Z,50.28
2022-10-08T01:27:27.520Z,50.23
2022-10-08T01:30:01.393Z,50.30
2022-10-08T01:32:39.002Z,50.42
2022-10-08T01:35:14.483Z,50.35
2022-10-08T01:37:46.922Z,50.35
2022-10-08T01:40:19.480Z,50.45
2022-10-08T01:42:52.628Z,50.58
2022-10-08T01:45:27.833Z,50.69
2022-10-08T01:48:01.182Z,50.72
2022-10-08T01:50:37.012Z,50.79
2022-10-08T01:53:12.100Z,50.81
2022-10-08T01:55:46.509Z,50.80
2022-10-08T01:58:22.164Z,50.85
2022-10-08T02:00:56.324Z,50.90
2022-10-08T02:03:28.489Z,50.99
2022-10-08T02:06:01.563Z,50.98
2022-10-08T02:08:33.854Z,51.03
2022-10-08T02:11:06.017Z,50.86
2022-10-08T02:13:38.062Z,51.11
2022-10-08T02:16:14.913Z,51.07
2022-10-08T02:18:52.477Z,51.13
2022-10-08T02:21:27.655Z,51.14
2022-10-08T02:24:05.478Z,51.21
2022-10-08T02:26:40.716Z,51.27
2022-10-08T02:29:14.906Z,51.31
2022-10-08T02:31:51.017Z,51.34
2022-10-08T02:34:27.756Z,51.36
2022-10-08T02:37:04.927Z,51.32
2022-10-08T02:39:38.602Z,51.41
2022-10-08T02:42:12.741Z,51.38
2022-10-08T02:44:47.481Z,51.45
2022-10-08T02:47:22.165Z,51.45
2022-10-08T02:49:57.418Z,51.55
2022-10-08T02:52:33.092Z,51.55
2022-10-08T02:55:08.182Z,51.63
2022-10-08T02:57:44.211Z,51.67
2022-10-08T03:00:16.973Z,51.75
2022-10-08T03:02:57.010Z,51.75
2022-10-08T03:05:30.039Z,51.79
2022-10-08T03:08:04.765Z,51.71
2022-10-08T03:10:39.645Z,51.84
2022-10-08T03:13:12.328Z,51.82
2022-10-08T03:15:45.438Z,51.91
2022-10-08T03:18:17.543Z,51.94
2022-10-08T03:20:52.437Z,51.97
2022-10-08T03:23:24.707Z,51.97
2022-10-08T03:25:56.794Z,52.06
2022-10-08T03:28:29.088Z,52.07
2022-10-08T03:31:04.941Z,52.10
2022-10-08T03:33:37.099Z,52.18
2022-10-08T03:36:09.681Z,52.18
2022-10-08T03:38:41.806Z,52.28
2022-10-08T03:41:13.905Z,52.25
2022-10-08T03:43:46.171Z,52.34
2022-10-08T03:46:18.332Z,52.44
2022-10-08T03:48:52.281Z,52.48
2022-10-08T03:51:24.837Z,52.39
2022-10-08T03:53:55.214Z,52.43
2022-10-08T03:56:27.589Z,52.51
2022-10-08T03:59:00.906Z,52.63
2022-10-08T04:01:33.121Z,52.55
2022-10-08T04:04:05.443Z,52.51
2022-10-08T04:06:37.517Z,52.64
2022-10-08T04:09:10.099Z,52.68
2022-10-08T04:11:40.601Z,52.80
2022-10-08T04:14:12.682Z,52.76
2022-10-08T04:16:45.061Z,52.71
2022-10-08T04:19:17.905Z,52.77
2022-10-08T04:21:50.060Z,52.82
2022-10-08T04:24:22.200Z,52.96
2022-10-08T04:26:54.272Z,52.97
2022-10-08T04:29:26.493Z,52.94
2022-10-08T04:31:58.717Z,53.00
2022-10-08T04:34:30.840Z,52.99
2022-10-08T04:37:02.846Z,53.08
2022-10-08T04:39:34.927Z,53.05
2022-10-08T04:42:07.269Z,53.06
2022-10-08T04:44:40.585Z,53.14
2022-10-08T04:47:12.766Z,53.09
2022-10-08T04:49:45.007Z,53.19
2022-10-08T04:52:19.009Z,53.19
2022-10-08T04:54:51.473Z,53.20
2022-10-08T04:57:23.733Z,53.30
2022-10-08T05:00:17.501Z,53.24
2022-10-08T05:02:47.963Z,53.32
2022-10-08T05:05:20.309Z,53.38
2022-10-08T05:07:54.449Z,53.47
2022-10-08T05:10:26.664Z,53.48
2022-10-08T05:12:59.144Z,53.41
2022-10-08T05:15:32.274Z,53.46
2022-10-08T05:18:04.673Z,53.42
2022-10-08T05:20:38.391Z,53.53
2022-10-08T05:23:10.581Z,53.54
2022-10-08T05:25:42.969Z,53.56
2022-10-08T05:28:15.168Z,53.59
2022-10-08T05:30:47.418Z,53.63
2022-10-08T05:33:19.624Z,53.65
2022-10-08T05:35:51.827Z,53.70
2022-10-08T05:38:23.947Z,53.74
2022-10-08T05:40:56.000Z,53.69
2022-10-08T05:43:28.155Z,53.71
2022-10-08T05:46:00.229Z,53.77
2022-10-08T05:48:32.411Z,53.70
2022-10-08T05:51:06.638Z,53.82
2022-10-08T05:53:40.211Z,53.91
2022-10-08T05:56:13.737Z,53.86
2022-10-08T05:58:46.306Z,53.85
2022-10-08T06:01:17.068Z,53.90
2022-10-08T06:03:51.850Z,54.01
2022-10-08T06:06:24.266Z,53.91
2022-10-08T06:08:58.778Z,53.94
2022-10-08T06:11:32.492Z,53.92
2022-10-08T06:14:06.136Z,53.63
2022-10-08T06:16:38.626Z,53.63
2022-10-08T06:19:11.387Z,53.74
2022-10-08T06:21:41.799Z,53.29
2022-10-08T06:24:18.547Z,52.97
2022-10-08T06:26:50.861Z,52.97
2022-10-08T06:29:22.886Z,53.00
2022-10-08T06:31:55.692Z,53.10
2022-10-08T06:34:27.887Z,53.07
2022-10-08T06:36:59.970Z,52.85
2022-10-08T06:39:32.044Z,52.86
2022-10-08T06:42:04.227Z,52.79
2022-10-08T06:44:36.481Z,52.62
2022-10-08T06:47:08.723Z,52.63
2022-10-08T06:49:41.137Z,52.59
2022-10-08T06:52:12.597Z,52.47
2022-10-08T06:54:44.644Z,52.37
2022-10-08T06:57:16.834Z,52.27
2022-10-08T06:59:48.934Z,52.28
2022-10-08T07:02:21.065Z,52.28
2022-10-08T07:04:53.290Z,52.16
2022-10-08T07:07:25.456Z,52.21
2022-10-08T07:09:57.757Z,52.23
2022-10-08T07:12:29.996Z,52.14
2022-10-08T07:15:02.110Z,51.99
2022-10-08T07:17:34.790Z,51.91
2022-10-08T07:20:05.636Z,51.94
2022-10-08T07:22:37.766Z,51.93
2022-10-08T07:25:10.716Z,51.76
2022-10-08T07:27:45.037Z,51.76
2022-10-08T07:30:17.545Z,51.61
2022-10-08T07:32:49.859Z,51.83
2022-10-08T07:35:22.362Z,51.59
2022-10-08T07:37:54.429Z,51.76
2022-10-08T07:40:26.490Z,51.63
2022-10-08T07:42:58.585Z,51.42
2022-10-08T07:45:30.705Z,51.48
2022-10-08T07:48:02.868Z,51.45
2022-10-08T07:50:35.061Z,51.44
2022-10-08T07:53:08.091Z,51.51
2022-10-08T07:55:40.393Z,51.39
2022-10-08T07:58:12.489Z,51.22
2022-10-08T08:00:44.761Z,51.43
2022-10-08T08:03:19.037Z,51.23
2022-10-08T08:05:52.083Z,51.19
2022-10-08T08:08:25.505Z,51.20
2022-10-08T08:11:02.853Z,51.27
2022-10-08T08:13:37.759Z,51.04
2022-10-08T08:16:13.546Z,50.87
2022-10-08T08:18:47.586Z,50.94
2022-10-08T08:21:23.225Z,50.71
2022-10-08T08:23:57.613Z,50.73
2022-10-08T08:26:33.268Z,50.55
2022-10-08T08:29:09.585Z,50.48
2022-10-08T08:31:43.963Z,50.53
2022-10-08T08:34:19.556Z,50.52
2022-10-08T08:36:55.061Z,50.23
2022-10-08T08:39:30.598Z,50.28
2022-10-08T08:42:12.017Z,49.99
2022-10-08T08:44:46.609Z,50.06
2022-10-08T08:47:23.742Z,49.87
2022-10-08T08:49:59.596Z,49.77
2022-10-08T08:52:35.235Z,49.75
2022-10-08T08:55:13.609Z,49.64
2022-10-08T08:57:53.233Z,49.55
2022-10-08T09:00:31.626Z,49.45
2022-10-08T09:03:06.143Z,49.29
2022-10-08T09:05:43.631Z,49.38
2022-10-08T09:08:18.856Z,49.19
2022-10-08T09:17:23.017Z,48.85
2022-10-08T09:19:55.360Z,48.65
2022-10-08T09:22:27.421Z,48.54
2022-10-08T09:25:01.756Z,48.33
2022-10-08T09:27:51.404Z,48.35
2022-10-08T09:30:33.366Z,47.92
2022-10-08T09:33:21.658Z,47.67
2022-10-08T09:35:55.255Z,47.22
2022-10-08T09:38:29.685Z,47.01
2022-10-08T09:41:07.367Z,46.42
2022-10-08T09:43:39.782Z,46.08
2022-10-08T09:46:12.448Z,45.97
2022-10-08T09:48:45.991Z,45.80
2022-10-08T09:51:19.599Z,45.43
2022-10-08T09:53:53.985Z,45.01
2022-10-08T09:56:28.273Z,44.47
2022-10-08T09:59:03.337Z,44.06
2022-10-08T10:01:36.922Z,44.08
2022-10-08T10:04:11.154Z,43.98
2022-10-08T10:06:46.213Z,43.13
2022-10-08T10:09:29.206Z,42.76
2022-10-08T10:12:05.202Z,42.52
2022-10-08T10:14:44.206Z,41.94
2022-10-08T10:17:22.189Z,42.09
2022-10-08T10:19:56.988Z,41.80
2022-10-08T10:22:33.803Z,41.49
2022-10-08T10:25:10.237Z,41.17
2022-10-08T10:27:45.745Z,40.76
2022-10-08T10:30:22.561Z,40.12
2022-10-08T10:32:57.835Z,40.39
2022-10-08T10:35:32.277Z,40.20
2022-10-08T10:38:09.217Z,39.55
2022-10-08T10:40:44.107Z,38.84
2022-10-08T10:43:34.717Z,38.59
2022-10-08T10:46:20.226Z,38.55
2022-10-08T10:48:52.778Z,38.28
2022-10-08T10:51:36.917Z,38.27
2022-10-08T10:54:25.782Z,38.07
2022-10-08T10:57:02.329Z,37.84
2022-10-08T10:59:45.007Z,37.42
2022-10-08T11:02:24.844Z,37.22
2022-10-08T11:05:05.154Z,36.55
2022-10-08T11:07:50.890Z,36.18
2022-10-08T11:10:33.316Z,36.11
2022-10-08T11:13:12.491Z,35.76
2022-10-08T11:15:48.215Z,35.61
2022-10-08T11:18:26.282Z,35.48
2022-10-08T11:21:06.337Z,35.03
2022-10-08T11:23:57.446Z,34.73
2022-10-08T11:26:32.856Z,34.97
2022-10-08T11:29:13.276Z,34.23
2022-10-08T11:31:46.707Z,34.12
2022-10-08T11:34:25.225Z,33.93
2022-10-08T11:37:05.212Z,33.91
2022-10-08T11:39:46.188Z,33.76
2022-10-08T11:42:24.316Z,33.31
2022-10-08T11:44:56.528Z,32.92
2022-10-08T11:47:51.911Z,32.91
2022-10-08T11:50:35.465Z,32.35
2022-10-08T11:53:21.443Z,31.95
2022-10-08T11:55:55.343Z,31.43
2022-10-08T11:58:31.003Z,31.42
2022-10-08T12:01:06.872Z,31.22
2022-10-08T12:03:41.332Z,31.03
2022-10-08T12:06:25.244Z,31.12
2022-10-08T12:08:59.097Z,31.07
2022-10-08T12:11:49.662Z,30.86
2022-10-08T12:14:40.037Z,30.53
2022-10-08T12:17:13.367Z,30.41
2022-10-08T12:20:05.264Z,30.49
2022-10-08T12:23:00.377Z,30.06
2022-10-08T12:25:38.126Z,29.90
2022-10-08T12:28:44.809Z,29.53
2022-10-08T12:31:23.577Z,29.55
2022-10-08T12:34:00.764Z,29.78
2022-10-08T12:36:43.085Z,29.81
2022-10-08T12:39:22.002Z,29.59
2022-10-08T12:42:01.625Z,29.74
2022-10-08T12:44:42.102Z,29.91
2022-10-08T12:47:23.847Z,29.64
2022-10-08T12:50:00.103Z,29.61
2022-10-08T12:52:36.095Z,29.47
2022-10-08T12:55:14.821Z,29.30
2022-10-08T12:57:48.186Z,29.17
2022-10-08T13:00:25.522Z,29.00
2022-10-08T13:03:06.217Z,29.02
2022-10-08T13:05:39.908Z,28.82
2022-10-08T13:08:33.705Z,28.81
2022-10-08T13:11:09.823Z,28.73
2022-10-08T13:13:49.200Z,28.71
2022-10-08T13:16:23.359Z,28.44
2022-10-08T13:18:57.647Z,28.45
2022-10-08T13:21:41.119Z,28.14
2022-10-08T13:24:34.833Z,27.93
2022-10-08T13:27:08.074Z,28.08
2022-10-08T13:29:40.569Z,27.87
2022-10-08T13:32:21.755Z,27.88
2022-10-08T13:34:55.362Z,27.91
2022-10-08T13:37:33.931Z,27.99
2022-10-08T13:40:19.361Z,27.72
2022-10-08T13:42:53.814Z,27.75
2022-10-08T13:45:26.886Z,27.62
2022-10-08T13:47:59.425Z,27.47
2022-10-08T13:50:31.515Z,27.55
2022-10-08T13:53:03.891Z,27.63
2022-10-08T13:55:37.288Z,27.59
2022-10-08T13:58:11.622Z,27.53
2022-10-08T14:00:44.750Z,27.59
2022-10-08T14:03:17.017Z,27.52
2022-10-08T14:05:50.105Z,27.38
2022-10-08T14:08:25.389Z,27.31
2022-10-08T14:10:58.765Z,27.14
2022-10-08T14:13:31.056Z,27.49
2022-10-08T14:16:03.370Z,27.50
2022-10-08T14:18:35.531Z,27.18
2022-10-08T14:21:08.158Z,27.14
2022-10-08T14:23:40.312Z,27.32
2022-10-08T14:26:13.791Z,27.53
2022-10-08T14:28:46.051Z,27.70
2022-10-08T14:31:18.300Z,27.62
2022-10-08T14:33:50.442Z,27.61
2022-10-08T14:36:24.506Z,27.64
2022-10-08T14:38:56.550Z,27.60
2022-10-08T14:41:27.034Z,27.54
2022-10-08T14:43:59.165Z,27.61
2022-10-08T14:46:31.225Z,27.69
2022-10-08T14:49:02.834Z,27.78
2022-10-08T14:51:38.853Z,27.85
2022-10-08T14:54:12.166Z,28.10
2022-10-08T14:56:44.644Z,28.25
2022-10-08T14:59:16.854Z,28.18
2022-10-08T15:01:47.373Z,28.28
2022-10-08T15:04:19.822Z,28.37
2022-10-08T15:06:51.936Z,28.56
2022-10-08T15:09:24.050Z,28.47
2022-10-08T15:11:54.500Z,28.62
2022-10-08T15:14:26.682Z,28.80
2022-10-08T15:16:57.124Z,28.86
2022-10-08T15:19:29.314Z,29.05
2022-10-08T15:21:59.825Z,29.24
2022-10-08T15:24:32.126Z,29.44
2022-10-08T15:27:02.689Z,29.43
2022-10-08T15:29:35.101Z,29.54
2022-10-08T15:32:05.629Z,29.54
2022-10-08T15:34:38.165Z,29.73
2022-10-08T15:37:09.046Z,29.85
2022-10-08T15:39:41.262Z,29.99
2022-10-08T15:42:12.212Z,29.98
2022-10-08T15:44:46.776Z,30.11
2022-10-08T15:47:18.939Z,30.33
2022-10-08T15:49:49.467Z,30.26
2022-10-08T15:52:22.714Z,30.74
2022-10-08T15:54:54.908Z,30.56
2022-10-08T15:57:27.021Z,30.78
2022-10-08T15:59:58.457Z,30.84
2022-10-08T16:02:30.775Z,31.04
2022-10-08T16:05:02.997Z,31.29
2022-10-08T16:07:33.484Z,31.32
2022-10-08T16:10:06.244Z,31.36
2022-10-08T16:12:38.457Z,31.61
2022-10-08T16:15:12.374Z,31.69
2022-10-08T16:17:44.490Z,31.55
2022-10-08T16:20:16.747Z,31.76
2022-10-08T16:22:47.471Z,31.93
2022-10-08T16:25:19.820Z,32.20
2022-10-08T16:27:52.066Z,32.29
2022-10-08T16:30:24.170Z,32.50
2022-10-08T16:32:56.576Z,32.46
2022-10-08T16:35:27.113Z,32.69
2022-10-08T16:37:59.541Z,32.80
2022-10-08T16:40:30.023Z,32.96
2022-10-08T16:43:02.143Z,33.04
2022-10-08T16:45:38.186Z,33.12
2022-10-08T16:48:10.471Z,33.15
2022-10-08T16:50:43.325Z,33.33
2022-10-08T16:53:15.433Z,33.30
2022-10-08T16:55:47.557Z,33.62
2022-10-08T16:58:19.737Z,33.72
2022-10-08T17:00:51.879Z,33.83
2022-10-08T17:03:22.849Z,33.93
2022-10-08T17:05:54.914Z,34.13
2022-10-08T17:08:27.028Z,34.30
2022-10-08T17:10:59.229Z,34.28
2022-10-08T17:13:31.403Z,34.43
2022-10-08T17:16:07.443Z,34.59
2022-10-08T17:18:40.057Z,34.64
2022-10-08T17:21:12.379Z,34.83
2022-10-08T17:23:44.689Z,34.85
2022-10-08T17:26:18.947Z,34.97
2022-10-08T17:28:52.288Z,35.14
2022-10-08T17:31:25.709Z,35.32
2022-10-08T17:33:57.969Z,35.33
2022-10-08T17:36:28.860Z,35.53
2022-10-08T17:39:03.134Z,35.51
2022-10-08T17:41:36.697Z,35.71
2022-10-08T17:44:10.486Z,35.70
2022-10-08T17:46:45.737Z,35.94
2022-10-08T17:49:19.898Z,36.02
2022-10-08T17:51:52.067Z,36.10
2022-10-08T17:54:24.272Z,36.16
2022-10-08T17:56:56.425Z,36.23
2022-10-08T17:59:28.528Z,36.54
2022-10-08T18:02:00.774Z,36.63
2022-10-08T18:04:33.084Z,36.80
2022-10-08T18:07:05.191Z,36.93
2022-10-08T18:09:37.751Z,37.13
2022-10-08T18:12:10.063Z,37.13
2022-10-08T18:14:40.588Z,37.20
2022-10-08T18:17:12.714Z,37.50
2022-10-08T18:19:45.365Z,37.41
2022-10-08T18:22:17.669Z,37.57
2022-10-08T18:24:49.822Z,37.71
2022-10-08T18:27:22.101Z,37.79
2022-10-08T18:29:54.224Z,38.04
2022-10-08T18:32:26.530Z,38.21
2022-10-08T18:34:58.653Z,38.29
2022-10-08T18:37:30.920Z,38.13
2022-10-08T18:40:03.534Z,38.35
2022-10-08T18:42:35.792Z,38.41
2022-10-08T18:45:09.622Z,38.54
2022-10-08T18:47:41.810Z,38.69
2022-10-08T18:50:14.112Z,38.91
2022-10-08T18:52:46.435Z,38.92
2022-10-08T18:55:18.984Z,39.07
2022-10-08T18:57:51.093Z,39.20
2022-10-08T19:00:23.278Z,39.25
2022-10-08T19:02:57.347Z,39.34
2022-10-08T19:05:29.693Z,39.28
2022-10-08T19:08:01.924Z,39.60
2022-10-08T19:10:34.187Z,39.85
2022-10-08T19:13:06.365Z,39.76
2022-10-08T19:15:39.753Z,40.07
2022-10-08T19:18:12.065Z,40.08
2022-10-08T19:20:44.340Z,40.39
2022-10-08T19:23:16.653Z,40.46
2022-10-08T19:25:48.924Z,40.63
2022-10-08T19:28:21.266Z,40.62
2022-10-08T19:30:53.605Z,40.66
2022-10-08T19:33:25.801Z,40.83
2022-10-08T19:36:03.111Z,41.22
2022-10-08T19:38:35.624Z,41.15
2022-10-08T19:41:09.439Z,41.28
2022-10-08T19:43:44.488Z,41.49
2022-10-08T19:46:16.674Z,41.52
2022-10-08T19:48:52.099Z,41.70
2022-10-08T19:51:24.853Z,41.84
2022-10-08T19:53:57.251Z,41.91
2022-10-08T19:56:30.335Z,42.12
2022-10-08T19:59:02.484Z,42.18
2022-10-08T20:01:37.616Z,42.25
2022-10-08T20:04:10.859Z,42.31
2022-10-08T20:06:44.010Z,42.35
2022-10-08T20:09:16.688Z,42.49
2022-10-08T20:11:48.905Z,42.38
2022-10-08T20:14:20.980Z,42.47
2022-10-08T20:16:53.173Z,42.63
2022-10-08T20:19:25.730Z,42.77
2022-10-08T20:21:58.041Z,42.74
2022-10-08T20:24:30.157Z,42.95
2022-10-08T20:27:02.273Z,42.99
2022-10-08T20:29:34.585Z,43.02
2022-10-08T20:32:06.701Z,43.25
2022-10-08T20:34:38.987Z,43.28
2022-10-08T20:37:11.120Z,43.32
2022-10-08T20:39:43.196Z,43.36
2022-10-08T20:42:15.245Z,43.42
2022-10-08T20:44:47.312Z,43.50
2022-10-08T20:47:19.496Z,43.55
2022-10-08T20:49:51.595Z,43.55
2022-10-08T20:52:23.828Z,43.87
2022-10-08T20:54:56.019Z,43.56
2022-10-08T20:57:28.129Z,43.78
2022-10-08T21:00:00.255Z,43.95
2022-10-08T21:02:32.924Z,44.01
2022-10-08T21:05:05.291Z,44.22
2022-10-08T21:07:37.422Z,44.17
2022-10-08T21:10:11.484Z,44.39
2022-10-08T21:12:43.717Z,44.51
2022-10-08T21:15:15.906Z,44.49
2022-10-08T21:17:47.983Z,44.70
2022-10-08T21:20:20.150Z,44.55
2022-10-08T21:22:52.380Z,44.65
2022-10-08T21:25:25.289Z,44.81
2022-10-08T21:27:55.772Z,44.74
2022-10-08T21:30:27.843Z,44.92
2022-10-08T21:32:59.965Z,44.98
2022-10-08T21:35:32.093Z,44.97
2022-10-08T21:38:04.160Z,45.22
2022-10-08T21:40:36.283Z,45.17
2022-10-08T21:43:08.353Z,45.24
2022-10-08T21:45:40.531Z,45.41
2022-10-08T21:48:12.617Z,45.58
2022-10-08T21:50:44.739Z,45.54
2022-10-08T21:53:16.774Z,45.50
2022-10-08T21:55:56.666Z,45.63
2022-10-08T21:58:30.077Z,45.61
2022-10-08T22:01:02.295Z,45.76
2022-10-08T22:03:34.392Z,45.89
2022-10-08T22:06:07.004Z,45.74
2022-10-08T22:08:39.095Z,45.90
2022-10-08T22:11:11.276Z,46.10
2022-10-08T22:13:43.410Z,46.13
2022-10-08T22:16:16.581Z,46.09
2022-10-08T22:18:48.961Z,46.19
2022-10-08T22:21:22.540Z,46.16
2022-10-08T22:23:55.447Z,46.25
2022-10-08T22:26:31.208Z,46.27
2022-10-08T22:29:03.652Z,46.24
2022-10-08T22:31:34.572Z,46.28
2022-10-08T22:34:06.974Z,46.42
2022-10-08T22:36:41.604Z,46.57
2022-10-08T22:39:13.957Z,46.44
2022-10-08T22:41:46.551Z,46.58
2022-10-08T22:44:18.673Z,46.65
2022-10-08T22:46:50.764Z,46.65
2022-10-08T22:49:22.950Z,46.92
2022-10-08T22:51:55.054Z,46.88
2022-10-08T22:54:27.135Z,46.95
2022-10-08T22:56:59.240Z,47.01
2022-10-08T22:59:31.818Z,46.93
2022-10-08T23:02:04.192Z,47.16
2022-10-08T23:04:36.320Z,47.05
2022-10-08T23:07:08.423Z,47.21
2022-10-08T23:09:40.512Z,47.15
2022-10-08T23:12:12.716Z,47.30
2022-10-08T23:14:44.780Z,47.39
2022-10-08T23:17:17.812Z,47.48
2022-10-08T23:19:49.815Z,47.52
2022-10-08T23:22:22.037Z,47.53
2022-10-08T23:24:54.099Z,47.58
2022-10-08T23:27:26.171Z,47.62
2022-10-08T23:29:58.263Z,47.63
2022-10-08T23:32:30.593Z,47.72
2022-10-08T23:35:02.650Z,47.80
2022-10-08T23:37:34.883Z,47.83
2022-10-08T23:40:07.887Z,47.89
2022-10-08T23:42:39.994Z,47.98
2022-10-08T23:45:13.477Z,48.05
2022-10-08T23:47:45.560Z,48.12
2022-10-08T23:50:17.931Z,48.09
2022-10-08T23:52:50.290Z,48.29
2022-10-08T23:55:22.922Z,48.68
2022-10-08T23:57:55.076Z,48.88
